Airfield :
LOGIN :

Register | Disclaimer

   EN    FR    IT 

 










Legend :    VFR   Marginal VFR   IFR   Intensive IFR   Very Intensive IFR
Visi :
Ceiling :
>= 8 km
>= 3000ft
5 to 8 km
1000 to 3000 ft
1500m to 5 km
500 to 1000 ft
800 to 1500m
200 to 500 ft
< 800m
< 200 ft
Symbols :   Thunderstorms  Fog  Heavy snow  Heavy precipitations  Wind > 20 kt
SIGMETs :     Misc.  Thunderstorms  Icing  Turbulence  Mountain Waves  Volcanic Ashes






- Airport Elevation : 506 ft
- IATA code : GOT


ESGG - Landvetter

CURRENT METAR :
  • 011620Z 29004KT 240V330 9999 BKN005 OVC007 02/01 Q0993

EXPIRED METARs :
  • 011550Z 24010KT 7000 SCT004 BKN006 OVC012 03/02 Q0992
  • 011520Z 22009KT 9000 BKN005 03/02 Q0992
  • 011450Z 22008KT 8000 -DZ BKN006 04/02 Q0992
  • 011420Z 24010KT 9999 BKN008 04/02 Q0992
  • 011350Z 25009KT 8000 DZ BKN008 04/02 Q0992

TAF TAF ESGG
Valid from the 01 at 15:00 until the 02 at 15:00 UTC


011430Z 0115/0215 21008KT 9999 BKN008
TEMPO 0115/0121 1200 SHSNRA BKN003 BKN010CB
BECMG 0117/0119 03010KT
BECMG 0119/0121 SCT020
PROB40 0121/0207 BKN010



MET'MAP, your aeronautical weather chart ! - Copyright ORBIFLY December 2007 - Disclaimer

ORBIFLY MET'MAP TEAM :

Programming & Development : Alexandra Zaïnal
Original concept : Baudouin d'Aumeries
Technical & hardware support : Manuel Goepfert
Assistance : Marc-Olivier Méhu




SOURCES & CREDITS :

   NOAA